Time;durP1;ratioP1;P1;durP2;ratioP2;P2;SDS_P1;SDS_P2;PMS_P1;PMS_P2;Temp;Humidity;BMP_temperature;BMP_pressure;BME280_temperature;BME280_humidity;BME280_pressure;Samples;Min_cycle;Max_cycle;Signal;HPM_P1;HPM_P2
2022/12/28 00:02:08;;;;;;;14.80;3.60;;;;;;;1.97;84.18;101151.17;103848;1286;24047;-78
2022/12/28 00:04:39;;;;;;;20.10;4.20;;;;;;;1.97;84.15;101155.02;103848;1287;25394;-78
2022/12/28 00:07:10;;;;;;;20.40;4.20;;;;;;;1.96;84.21;101153.92;103793;1287;22473;-78
2022/12/28 00:09:41;;;;;;;16.10;3.60;;;;;;;1.94;84.18;101150.00;104017;1293;25339;-78
2022/12/28 00:12:11;;;;;;;19.00;4.50;;;;;;;1.92;84.20;101150.80;103803;1287;24366;-78
2022/12/28 00:14:42;;;;;;;17.50;3.40;;;;;;;1.91;84.20;101158.35;103757;1295;22490;-78
2022/12/28 00:17:13;;;;;;;11.80;3.00;;;;;;;1.89;84.28;101158.20;103978;1304;22525;-78
2022/12/28 00:19:43;;;;;;;16.10;3.80;;;;;;;1.89;84.36;101157.58;103924;1294;25277;-78
2022/12/28 00:22:14;;;;;;;16.40;3.30;;;;;;;1.88;84.30;101159.47;103908;1309;22494;-78
2022/12/28 00:24:45;;;;;;;18.50;4.60;;;;;;;1.84;84.32;101154.67;103857;1303;22433;-78
2022/12/28 00:27:16;;;;;;;15.90;3.60;;;;;;;1.82;84.31;101154.52;103812;1295;22465;-78
2022/12/28 00:29:46;;;;;;;16.00;4.10;;;;;;;1.81;84.44;101154.77;103818;1287;22547;-78
2022/12/28 00:32:17;;;;;;;18.50;4.40;;;;;;;1.81;84.52;101154.68;103753;1294;22485;-78
2022/12/28 00:34:48;;;;;;;16.60;3.50;;;;;;;1.80;84.46;101150.67;103771;1284;24880;-78
2022/12/28 00:37:18;;;;;;;17.70;4.50;;;;;;;1.79;84.45;101148.80;103790;1287;25650;-78
2022/12/28 00:39:49;;;;;;;15.40;4.00;;;;;;;1.77;84.38;101149.52;103816;1287;22482;-78
2022/12/28 00:42:20;;;;;;;14.80;3.60;;;;;;;1.72;84.42;101146.61;103836;1303;24783;-78
2022/12/28 00:44:50;;;;;;;16.10;3.60;;;;;;;1.69;84.46;101147.09;103807;1309;22515;-78
2022/12/28 00:47:21;;;;;;;16.50;4.10;;;;;;;1.68;84.56;101142.75;103826;1307;22474;-78
2022/12/28 00:49:52;;;;;;;17.00;3.80;;;;;;;1.66;84.66;101137.58;103780;1309;22467;-78
2022/12/28 00:52:22;;;;;;;16.20;4.30;;;;;;;1.66;84.82;101140.09;103815;1309;25302;-77
2022/12/28 00:54:53;;;;;;;19.90;4.60;;;;;;;1.66;84.68;101139.84;104265;1277;22469;-78
2022/12/28 00:57:24;;;;;;;16.50;3.80;;;;;;;1.65;84.79;101138.90;103817;1309;22468;-78
2022/12/28 00:59:55;;;;;;;16.80;4.00;;;;;;;1.63;84.80;101142.05;103738;1308;22485;-78
2022/12/28 01:02:25;;;;;;;17.00;3.50;;;;;;;1.61;84.87;101138.29;103854;1309;22443;-78
2022/12/28 01:04:56;;;;;;;16.80;3.50;;;;;;;1.60;84.92;101136.25;103867;1309;22505;-78
2022/12/28 01:07:27;;;;;;;16.50;3.30;;;;;;;1.58;84.92;101134.45;103818;1284;24383;-78
2022/12/28 01:09:58;;;;;;;15.40;3.60;;;;;;;1.56;84.93;101132.41;103763;1302;22565;-78
2022/12/28 01:12:29;;;;;;;20.40;5.00;;;;;;;1.54;85.02;101128.58;103694;1309;25698;-78
2022/12/28 01:15:00;;;;;;;20.80;3.40;;;;;;;1.51;85.05;101124.79;103810;1309;22479;-78
2022/12/28 01:17:31;;;;;;;16.30;3.30;;;;;;;1.50;85.08;101121.10;103869;1299;22502;-78
2022/12/28 01:20:02;;;;;;;27.80;4.50;;;;;;;1.50;85.26;101118.04;103914;1287;22485;-78
2022/12/28 01:22:33;;;;;;;18.60;3.60;;;;;;;1.52;85.25;101115.05;103880;1299;22524;-78
2022/12/28 01:25:04;;;;;;;19.80;3.70;;;;;;;1.52;85.33;101107.66;103904;1291;25285;-80
2022/12/28 01:27:35;;;;;;;17.10;3.70;;;;;;;1.53;85.28;101111.58;103929;1285;26540;-78
2022/12/28 01:30:07;;;;;;;24.10;4.00;;;;;;;1.53;85.21;101102.55;103830;1309;25494;-78
2022/12/28 01:32:38;;;;;;;15.80;3.90;;;;;;;1.51;85.06;101097.42;103842;1294;22450;-78
2022/12/28 01:35:10;;;;;;;13.30;2.60;;;;;;;1.50;85.08;101093.43;103870;1294;22618;-78
2022/12/28 01:37:41;;;;;;;11.30;2.80;;;;;;;1.48;85.16;101090.05;103895;1289;25405;-78
2022/12/28 01:40:15;;;;;;;16.40;3.80;;;;;;;1.45;85.21;101085.97;103818;1302;22547;-78
2022/12/28 01:42:46;;;;;;;17.40;4.20;;;;;;;1.41;85.29;101088.34;104031;1308;22620;-78
2022/12/28 01:45:20;;;;;;;11.80;3.40;;;;;;;1.40;85.38;101088.27;103814;1309;24288;-78
2022/12/28 01:47:55;;;;;;;14.10;3.60;;;;;;;1.38;85.32;101086.77;103891;1309;22499;-78
2022/12/28 01:50:29;;;;;;;12.40;3.50;;;;;;;1.36;85.40;101087.88;103893;1284;22474;-78
2022/12/28 01:53:04;;;;;;;11.90;3.40;;;;;;;1.34;85.48;101088.51;103870;1285;22474;-78
2022/12/28 01:55:39;;;;;;;14.30;2.70;;;;;;;1.31;85.50;101088.60;103925;1309;22498;-78
2022/12/28 01:58:15;;;;;;;12.80;3.20;;;;;;;1.29;85.60;101082.30;104165;1285;22488;-78
2022/12/28 02:00:46;;;;;;;13.70;3.50;;;;;;;1.27;85.67;101081.13;103873;1301;22507;-78
2022/12/28 02:03:19;;;;;;;15.50;3.60;;;;;;;1.25;85.80;101077.52;103820;1301;24035;-78
2022/12/28 02:05:54;;;;;;;12.20;2.90;;;;;;;1.23;85.80;101074.61;103844;1285;22894;-78
2022/12/28 02:08:29;;;;;;;8.70;2.40;;;;;;;1.20;85.89;101070.92;103858;1301;24263;-78
2022/12/28 02:11:01;;;;;;;11.70;3.90;;;;;;;1.18;86.03;101070.46;103828;1309;22946;-78
2022/12/28 02:13:33;;;;;;;18.60;4.20;;;;;;;1.18;86.17;101062.14;103869;1309;22481;-78
2022/12/28 02:16:05;;;;;;;13.80;3.80;;;;;;;1.17;86.23;101059.08;103914;1287;24292;-78
2022/12/28 02:18:36;;;;;;;15.50;4.10;;;;;;;1.17;86.28;101054.13;103892;1301;23734;-78
2022/12/28 02:21:35;;;;;;;15.10;3.60;;;;;;;1.16;86.31;101050.52;103863;1304;25385;-78
2022/12/28 02:24:42;;;;;;;17.70;5.30;;;;;;;1.15;86.44;101041.39;103810;1301;22490;-78
2022/12/28 02:27:21;;;;;;;16.00;3.90;;;;;;;1.15;86.58;101031.10;103772;1309;22487;-78
2022/12/28 02:30:09;;;;;;;11.90;3.40;;;;;;;1.18;86.53;101024.10;103695;1308;25401;-78
2022/12/28 02:32:54;;;;;;;18.10;3.90;;;;;;;1.19;86.67;101021.66;104295;1293;22492;-78
2022/12/28 02:35:34;;;;;;;18.30;4.00;;;;;;;1.20;86.57;101013.56;103841;1285;25248;-78
2022/12/28 02:38:14;;;;;;;16.90;4.60;;;;;;;1.21;86.59;101016.55;103926;1302;22485;-78
2022/12/28 02:40:49;;;;;;;17.90;4.70;;;;;;;1.21;86.54;101019.38;103913;1308;22538;-78
2022/12/28 02:43:20;;;;;;;16.00;4.60;;;;;;;1.21;86.63;101011.67;103907;1302;22615;-78
2022/12/28 02:51:55;;;;;;;15.20;4.10;;;;;;;1.19;86.88;101004.05;103928;1293;22482;-78
2022/12/28 02:58:04;;;;;;;15.90;4.70;;;;;;;1.19;86.89;101000.69;103816;1294;23841;-78
2022/12/28 03:00:48;;;;;;;20.40;5.10;;;;;;;1.18;87.00;100994.16;103895;1301;22455;-78
2022/12/28 03:03:28;;;;;;;17.10;4.40;;;;;;;1.18;87.00;100991.65;103841;1309;22488;-78
2022/12/28 03:09:08;;;;;;;18.90;4.30;;;;;;;1.19;87.25;100984.18;104220;1301;22492;-78
2022/12/28 03:11:44;;;;;;;19.20;4.30;;;;;;;1.21;87.37;100988.58;103905;1294;24271;-78
2022/12/28 03:14:22;;;;;;;15.70;3.80;;;;;;;1.23;87.50;100983.39;103922;1286;22765;-78
2022/12/28 03:31:22;;;;;;;15.40;3.00;;;;;;;1.38;88.15;100954.02;103761;1309;22478;-79
2022/12/28 03:34:05;;;;;;;15.40;3.20;;;;;;;1.41;88.14;100951.09;103862;1293;22483;-79
2022/12/28 03:36:47;;;;;;;16.00;4.30;;;;;;;1.43;88.10;100953.20;103903;1286;22503;-79
2022/12/28 03:39:30;;;;;;;15.60;3.50;;;;;;;1.46;88.15;100953.42;103860;1309;22502;-79
2022/12/28 03:45:11;;;;;;;13.90;4.50;;;;;;;1.50;88.19;100954.52;104200;1309;22588;-78
2022/12/28 03:47:44;;;;;;;21.00;4.90;;;;;;;1.51;88.12;100947.83;103946;1309;23286;-78
2022/12/28 03:50:16;;;;;;;20.30;4.90;;;;;;;1.53;88.06;100944.19;103994;1293;22479;-77
2022/12/28 03:52:47;;;;;;;17.80;5.40;;;;;;;1.53;88.09;100936.88;103983;1285;25867;-78
2022/12/28 03:55:18;;;;;;;23.90;5.60;;;;;;;1.54;88.03;100931.30;103857;1277;24315;-78
2022/12/28 03:57:49;;;;;;;26.00;6.10;;;;;;;1.55;88.08;100927.91;103818;1285;25279;-78
2022/12/28 04:00:20;;;;;;;17.10;5.30;;;;;;;1.55;88.13;100923.44;103951;1292;24350;-78
2022/12/28 04:02:51;;;;;;;20.60;5.70;;;;;;;1.55;88.15;100920.21;103829;1308;23090;-78
2022/12/28 04:05:21;;;;;;;19.80;4.30;;;;;;;1.56;88.34;100919.58;103962;1309;22490;-78
2022/12/28 04:07:52;;;;;;;22.30;6.10;;;;;;;1.57;88.46;100920.27;103860;1309;23244;-78
2022/12/28 04:10:23;;;;;;;19.70;4.40;;;;;;;1.59;88.43;100919.71;103904;1278;25285;-78
2022/12/28 04:12:57;;;;;;;20.00;3.90;;;;;;;1.60;88.41;100921.35;103911;1301;22467;-78
2022/12/28 04:15:27;;;;;;;16.80;3.00;;;;;;;1.61;88.37;100923.39;103958;1309;23036;-78
2022/12/28 04:17:59;;;;;;;17.00;3.40;;;;;;;1.62;88.36;100918.13;103889;1309;22499;-78
2022/12/28 04:20:30;;;;;;;10.40;3.20;;;;;;;1.63;88.28;100911.67;103870;1286;25559;-78
2022/12/28 04:23:01;;;;;;;14.50;3.30;;;;;;;1.63;88.40;100902.79;103899;1309;24324;-78
2022/12/28 04:25:31;;;;;;;15.80;3.70;;;;;;;1.62;88.26;100897.83;103873;1309;22490;-78
2022/12/28 04:28:02;;;;;;;15.90;4.20;;;;;;;1.62;88.22;100893.67;103947;1285;22421;-78
2022/12/28 04:30:33;;;;;;;15.60;4.20;;;;;;;1.61;88.26;100886.83;103912;1309;22461;-78
2022/12/28 04:33:03;;;;;;;19.80;5.80;;;;;;;1.61;88.17;100880.70;103943;1299;22478;-78
2022/12/28 04:35:34;;;;;;;20.30;5.40;;;;;;;1.60;88.11;100882.11;103898;1307;22471;-78
2022/12/28 04:38:05;;;;;;;20.90;5.40;;;;;;;1.58;88.14;100877.09;103871;1288;22591;-78
2022/12/28 04:40:36;;;;;;;16.20;4.40;;;;;;;1.57;88.23;100875.37;103937;1285;22517;-78
2022/12/28 04:43:07;;;;;;;13.50;3.50;;;;;;;1.57;88.23;100875.77;103885;1281;22598;-78
2022/12/28 04:45:37;;;;;;;18.80;3.50;;;;;;;1.57;88.25;100873.10;103924;1309;22456;-78
2022/12/28 04:48:08;;;;;;;12.70;3.50;;;;;;;1.58;88.18;100868.61;104313;1301;22433;-78
2022/12/28 04:50:39;;;;;;;13.90;3.00;;;;;;;1.59;88.21;100862.64;103990;1309;22548;-78
2022/12/28 04:53:10;;;;;;;14.60;3.50;;;;;;;1.58;88.16;100859.33;103899;1296;24912;-78
2022/12/28 04:55:41;;;;;;;13.50;3.60;;;;;;;1.57;88.10;100858.88;103942;1309;24257;-78
2022/12/28 04:58:11;;;;;;;10.00;2.80;;;;;;;1.54;88.03;100860.30;103977;1301;22506;-78
2022/12/28 05:00:42;;;;;;;10.30;2.40;;;;;;;1.51;88.19;100854.73;103914;1285;22868;-78
2022/12/28 05:03:13;;;;;;;11.80;3.00;;;;;;;1.49;88.16;100852.47;104245;1293;22507;-78
2022/12/28 05:05:42;;;;;;;;;;;;;;;1.47;88.24;100847.92;103954;1285;25263;-78
2022/12/28 05:08:13;;;;;;;13.60;2.90;;;;;;;1.46;88.30;100844.33;103914;1309;24753;-78
2022/12/28 05:10:43;;;;;;;11.30;2.70;;;;;;;1.42;88.34;100831.59;103846;1304;22473;-78
2022/12/28 05:13:13;;;;;;;;;;;;;;;1.40;88.42;100827.85;103794;1304;22568;-78
2022/12/28 05:15:43;;;;;;;13.00;4.30;;;;;;;1.39;88.51;100827.31;103839;1309;24252;-78
2022/12/28 05:18:14;;;;;;;12.10;3.70;;;;;;;1.37;88.48;100820.64;103888;1294;22472;-78
2022/12/28 05:20:45;;;;;;;9.90;2.70;;;;;;;1.36;88.56;100819.46;103842;1309;22756;-77
2022/12/28 05:23:15;;;;;;;13.10;3.30;;;;;;;1.36;88.55;100815.46;103793;1303;22536;-77
2022/12/28 05:25:54;;;;;;;15.30;3.00;;;;;;;1.36;88.52;100816.55;103782;1309;22585;-78
2022/12/28 05:28:25;;;;;;;11.20;2.40;;;;;;;1.36;88.59;100818.91;103911;1286;22474;-78
2022/12/28 05:31:01;;;;;;;13.10;2.80;;;;;;;1.37;88.64;100817.56;103812;1309;22506;-78
2022/12/28 05:33:34;;;;;;;11.80;2.60;;;;;;;1.36;88.65;100811.05;103870;1301;22483;-77
2022/12/28 05:36:06;;;;;;;10.40;2.40;;;;;;;1.35;88.64;100804.54;103875;1309;22488;-80
2022/12/28 05:38:37;;;;;;;10.30;2.90;;;;;;;1.34;88.76;100801.00;103851;1308;22486;-78
2022/12/28 05:41:12;;;;;;;13.00;3.60;;;;;;;1.33;88.82;100795.91;103887;1284;22500;-78
2022/12/28 05:43:43;;;;;;;16.20;4.10;;;;;;;1.32;88.79;100795.84;103948;1285;22489;-78
2022/12/28 05:46:18;;;;;;;17.40;3.00;;;;;;;1.31;88.79;100796.94;104075;1301;22505;-79
2022/12/28 05:48:49;;;;;;;10.70;2.50;;;;;;;1.31;88.86;100796.95;104364;1297;22506;-79
2022/12/28 05:51:23;;;;;;;9.50;1.80;;;;;;;1.32;88.96;100795.67;103916;1301;22609;-78
2022/12/28 05:53:54;;;;;;;15.10;2.90;;;;;;;1.31;88.90;100795.61;103936;1291;22804;-78
2022/12/28 05:56:27;;;;;;;12.90;2.60;;;;;;;1.30;89.06;100792.95;103926;1284;22496;-79
2022/12/28 05:58:59;;;;;;;11.30;2.30;;;;;;;1.31;89.01;100794.04;103971;1303;23082;-78
2022/12/28 06:01:32;;;;;;;11.50;2.30;;;;;;;1.31;89.12;100793.64;104107;1297;22473;-78
2022/12/28 06:04:04;;;;;;;13.30;2.50;;;;;;;1.33;89.19;100788.67;104142;1286;22450;-79
2022/12/28 06:06:35;;;;;;;12.40;2.30;;;;;;;1.34;89.11;100783.56;104253;1309;22512;-78
2022/12/28 06:09:06;;;;;;;14.10;2.70;;;;;;;1.33;89.14;100782.38;103997;1309;22947;-78
2022/12/28 06:11:37;;;;;;;13.70;3.20;;;;;;;1.33;89.24;100780.34;104003;1291;22538;-80
2022/12/28 06:14:08;;;;;;;11.80;3.30;;;;;;;1.35;89.15;100782.68;104614;1291;22481;-79
2022/12/28 06:16:42;;;;;;;10.20;2.40;;;;;;;1.37;89.21;100782.75;104222;1293;22499;-79
2022/12/28 06:19:14;;;;;;;12.00;3.40;;;;;;;1.36;89.24;100778.98;104037;1301;22483;-78
2022/12/28 06:21:45;;;;;;;12.20;2.90;;;;;;;1.37;89.25;100775.44;103895;1285;23967;-78
2022/12/28 06:24:17;;;;;;;12.60;2.70;;;;;;;1.37;89.37;100773.55;103645;1302;22609;-78
2022/12/28 06:26:48;;;;;;;10.50;2.20;;;;;;;1.38;89.38;100773.16;103727;1294;22573;-78
2022/12/28 06:29:19;;;;;;;15.00;2.40;;;;;;;1.39;89.41;100765.92;103648;1294;26669;-78
2022/12/28 06:31:52;;;;;;;9.40;2.10;;;;;;;1.39;89.48;100763.48;103710;1294;22471;-77
2022/12/28 06:34:23;;;;;;;10.60;2.10;;;;;;;1.40;89.43;100762.08;103724;1301;24309;-77
2022/12/28 06:36:55;;;;;;;13.80;2.40;;;;;;;1.41;89.53;100767.08;103711;1307;22450;-78
2022/12/28 06:39:26;;;;;;;10.80;2.00;;;;;;;1.43;89.56;100768.32;103897;1303;23510;-78
2022/12/28 06:41:57;;;;;;;12.70;2.30;;;;;;;1.45;89.53;100770.66;103615;1308;22542;-77
2022/12/28 06:44:27;;;;;;;9.60;1.90;;;;;;;1.46;89.54;100772.00;103690;1303;22482;-78
2022/12/28 06:46:58;;;;;;;9.80;2.00;;;;;;;1.48;89.46;100776.30;103576;1288;22491;-78
2022/12/28 06:49:29;;;;;;;11.00;2.60;;;;;;;1.49;89.54;100783.85;103667;1309;23324;-81
2022/12/28 06:52:00;;;;;;;12.20;2.70;;;;;;;1.50;89.38;100786.52;104312;1294;22485;-82
2022/12/28 06:54:30;;;;;;;11.60;2.80;;;;;;;1.53;89.53;100783.10;104452;1309;22470;-82
2022/12/28 06:57:01;;;;;;;18.00;5.00;;;;;;;1.56;89.53;100787.64;104422;1301;22464;-82
2022/12/28 06:59:32;;;;;;;13.60;3.30;;;;;;;1.59;89.47;100789.27;104784;1309;22760;-80
2022/12/28 07:02:02;;;;;;;17.00;2.70;;;;;;;1.61;89.49;100790.35;104854;1306;25270;-80
2022/12/28 07:04:33;;;;;;;18.00;2.50;;;;;;;1.62;89.47;100782.56;104796;1309;22593;-80
2022/12/28 07:07:04;;;;;;;13.00;3.10;;;;;;;1.64;89.44;100775.30;104624;1303;22478;-82
2022/12/28 07:09:35;;;;;;;20.80;3.20;;;;;;;1.67;89.44;100773.17;104548;1293;23058;-82
2022/12/28 07:12:06;;;;;;;16.60;2.60;;;;;;;1.68;89.46;100774.50;104255;1301;22516;-82
2022/12/28 07:14:39;;;;;;;19.30;2.40;;;;;;;1.71;89.44;100767.87;104117;1287;25772;-81
2022/12/28 07:17:10;;;;;;;14.40;2.40;;;;;;;1.73;89.49;100761.41;104069;1303;22481;-83
2022/12/28 07:19:41;;;;;;;19.50;3.40;;;;;;;1.76;89.53;100763.57;104152;1309;22443;-83
2022/12/28 07:22:11;;;;;;;15.40;2.70;;;;;;;1.79;89.42;100763.48;104116;1285;22477;-82
2022/12/28 07:24:42;;;;;;;16.50;2.50;;;;;;;1.81;89.46;100761.55;104309;1301;22468;-81
2022/12/28 07:27:13;;;;;;;19.40;2.90;;;;;;;1.84;89.45;100763.67;104085;1303;22578;-82
2022/12/28 07:29:44;;;;;;;10.20;2.00;;;;;;;1.87;89.48;100763.01;104179;1294;25301;-83
2022/12/28 07:32:15;;;;;;;10.50;1.60;;;;;;;1.90;89.43;100750.70;104114;1294;25255;-82
2022/12/28 07:34:45;;;;;;;13.00;1.90;;;;;;;1.92;89.40;100752.81;104020;1292;24159;-82
2022/12/28 07:37:16;;;;;;;13.30;1.50;;;;;;;1.94;89.40;100752.64;104177;1294;22579;-81
2022/12/28 07:39:47;;;;;;;17.30;2.30;;;;;;;1.96;89.36;100755.29;103977;1294;23679;-82
2022/12/28 07:42:17;;;;;;;15.60;3.00;;;;;;;1.96;89.36;100751.04;104139;1301;22504;-82
2022/12/28 07:44:48;;;;;;;19.50;3.60;;;;;;;1.97;89.28;100750.16;104277;1303;22477;-83
2022/12/28 07:47:19;;;;;;;23.30;4.10;;;;;;;1.98;89.36;100754.23;104115;1309;22509;-83
2022/12/28 07:49:50;;;;;;;13.60;2.00;;;;;;;2.00;89.46;100755.95;104058;1309;24262;-81
2022/12/28 07:52:20;;;;;;;11.40;1.70;;;;;;;2.02;89.48;100756.10;104237;1287;22466;-81
2022/12/28 07:54:51;;;;;;;14.50;1.70;;;;;;;2.04;89.50;100755.21;104120;1290;22539;-81
2022/12/28 07:57:22;;;;;;;14.30;1.70;;;;;;;2.05;89.45;100759.44;104140;1287;25373;-82
2022/12/28 07:59:52;;;;;;;12.30;1.70;;;;;;;2.08;89.49;100757.22;104083;1294;25643;-82
2022/12/28 08:02:23;;;;;;;12.00;2.10;;;;;;;2.10;89.34;100760.73;104168;1301;22489;-82
2022/12/28 08:04:54;;;;;;;15.20;2.40;;;;;;;2.13;89.42;100762.98;104272;1285;22601;-85
2022/12/28 08:07:24;;;;;;;12.50;2.20;;;;;;;2.15;89.45;100760.28;104697;1307;22472;-85
2022/12/28 08:09:55;;;;;;;11.50;1.80;;;;;;;2.18;89.46;100757.10;104539;1303;25400;-85
2022/12/28 08:12:26;;;;;;;13.10;2.00;;;;;;;2.21;89.46;100753.61;104279;1309;22501;-85
2022/12/28 08:15:00;;;;;;;10.20;1.70;;;;;;;2.23;89.47;100753.83;104298;1302;22479;-85
2022/12/28 08:17:30;;;;;;;13.50;1.90;;;;;;;2.26;89.46;100750.98;104458;1284;23302;-85
2022/12/28 08:20:01;;;;;;;8.90;1.60;;;;;;;2.30;89.46;100754.30;104094;1309;22488;-84
2022/12/28 08:22:32;;;;;;;11.60;2.00;;;;;;;2.34;89.53;100756.77;104221;1309;25540;-84
2022/12/28 08:25:03;;;;;;;11.30;1.60;;;;;;;2.40;89.43;100765.05;104358;1287;22485;-84
2022/12/28 08:27:33;;;;;;;12.30;2.10;;;;;;;2.46;89.36;100764.04;104389;1303;22480;-84
2022/12/28 08:30:06;;;;;;;10.90;1.80;;;;;;;2.52;89.27;100759.41;104331;1309;22533;-84
2022/12/28 08:32:36;;;;;;;12.20;2.00;;;;;;;2.57;89.25;100755.17;104374;1306;22597;-84
2022/12/28 08:35:08;;;;;;;10.60;1.60;;;;;;;2.63;89.24;100746.74;104187;1308;24285;-85
2022/12/28 08:37:39;;;;;;;10.90;1.60;;;;;;;2.68;89.11;100747.55;104162;1309;22858;-85
2022/12/28 08:40:12;;;;;;;12.20;2.20;;;;;;;2.73;89.17;100744.95;104137;1301;25401;-85
2022/12/28 08:42:43;;;;;;;18.70;2.20;;;;;;;2.79;89.09;100741.19;104202;1309;23939;-84
2022/12/28 08:45:14;;;;;;;15.60;1.40;;;;;;;2.83;88.94;100737.89;104148;1306;23820;-84
2022/12/28 08:47:44;;;;;;;7.90;1.20;;;;;;;2.90;88.88;100732.05;104125;1303;25224;-85
2022/12/28 08:50:15;;;;;;;8.50;1.30;;;;;;;2.97;88.77;100730.30;104227;1306;22514;-84
2022/12/28 08:52:46;;;;;;;13.90;1.70;;;;;;;3.04;88.70;100720.98;104363;1309;22621;-84
2022/12/28 08:55:17;;;;;;;9.60;1.10;;;;;;;3.10;88.69;100718.28;104171;1284;22484;-85
2022/12/28 08:57:48;;;;;;;8.40;1.50;;;;;;;3.16;88.54;100720.23;104181;1308;23840;-85
2022/12/28 09:00:19;;;;;;;7.00;0.90;;;;;;;3.23;88.50;100715.80;104380;1309;22580;-85
2022/12/28 09:02:50;;;;;;;8.00;1.10;;;;;;;3.30;88.25;100708.91;104218;1309;22483;-84
2022/12/28 09:05:21;;;;;;;7.80;1.30;;;;;;;3.38;88.20;100713.36;104261;1303;22570;-84
2022/12/28 09:07:52;;;;;;;9.70;1.80;;;;;;;3.44;88.24;100709.56;104158;1309;22530;-85
2022/12/28 09:10:23;;;;;;;6.80;1.00;;;;;;;3.50;88.23;100706.70;104254;1309;25298;-85
2022/12/28 09:12:55;;;;;;;6.50;1.10;;;;;;;3.54;88.03;100699.20;104432;1285;22643;-83
2022/12/28 09:15:26;;;;;;;7.00;1.00;;;;;;;3.58;87.69;100696.14;104543;1309;23008;-83
2022/12/28 09:17:57;;;;;;;13.20;1.90;;;;;;;3.63;87.57;100691.95;104485;1303;24335;-84
2022/12/28 09:20:27;;;;;;;7.20;0.90;;;;;;;3.69;87.35;100697.15;104147;1301;24281;-82
2022/12/28 09:22:58;;;;;;;13.80;1.00;;;;;;;3.73;87.25;100692.56;104643;1290;41043;-80
2022/12/28 09:25:29;;;;;;;4.10;0.70;;;;;;;3.77;87.24;100694.70;104493;1301;22424;-79
2022/12/28 09:28:00;;;;;;;7.20;1.30;;;;;;;3.80;87.17;100691.80;104387;1294;22573;-82
2022/12/28 09:30:30;;;;;;;10.20;1.00;;;;;;;3.85;87.14;100686.12;104257;1302;24307;-82
2022/12/28 09:35:46;;;;;;;4.20;1.00;;;;;;;3.94;86.76;100681.45;104227;1284;22493;-81
2022/12/28 09:38:17;;;;;;;18.40;3.20;;;;;;;3.98;86.81;100673.17;104383;1301;22938;-81
2022/12/28 09:40:47;;;;;;;22.70;5.00;;;;;;;4.03;86.70;100670.21;104371;1309;22469;-80
2022/12/28 09:43:19;;;;;;;20.30;6.90;;;;;;;4.06;86.70;100659.42;104432;1309;22468;-81
2022/12/28 09:45:51;;;;;;;13.70;3.50;;;;;;;4.10;86.74;100659.90;104339;1301;22499;-81
2022/12/28 09:48:26;;;;;;;10.30;1.70;;;;;;;4.15;86.49;100657.43;104392;1300;22472;-81
2022/12/28 09:50:57;;;;;;;11.10;1.70;;;;;;;4.21;86.50;100653.85;104255;1294;25406;-81
2022/12/28 09:53:30;;;;;;;10.90;1.80;;;;;;;4.27;86.55;100647.97;104247;1301;23875;-82
2022/12/28 09:56:15;;;;;;;11.50;1.40;;;;;;;4.33;86.39;100649.73;104399;1302;23152;-81
2022/12/28 09:58:46;;;;;;;9.30;1.50;;;;;;;4.40;86.29;100643.48;104368;1294;24185;-83
2022/12/28 10:01:18;;;;;;;9.30;1.10;;;;;;;4.48;85.85;100640.78;104285;1301;24348;-82
2022/12/28 10:03:50;;;;;;;8.40;1.40;;;;;;;4.58;85.93;100638.75;104311;1309;23475;-82
2022/12/28 10:06:25;;;;;;;7.10;1.40;;;;;;;4.67;85.65;100637.05;104450;1294;22498;-82
2022/12/28 10:08:58;;;;;;;12.10;1.50;;;;;;;4.76;85.32;100637.63;104481;1299;24827;-82
2022/12/28 10:11:33;;;;;;;9.00;1.20;;;;;;;4.83;85.15;100633.84;104463;1309;22469;-81
2022/12/28 10:14:18;;;;;;;7.70;1.10;;;;;;;4.90;84.99;100633.20;104393;1295;25264;-82
2022/12/28 10:16:49;;;;;;;4.40;0.80;;;;;;;4.97;84.62;100628.22;104399;1301;22514;-82
2022/12/28 10:19:21;;;;;;;5.30;1.10;;;;;;;5.01;84.50;100620.45;104438;1278;22479;-84
2022/12/28 10:22:02;;;;;;;7.00;1.60;;;;;;;5.07;84.05;100611.70;104369;1309;22530;-83
2022/12/28 10:24:33;;;;;;;7.90;1.10;;;;;;;5.12;84.07;100604.52;104872;1301;24256;-85
2022/12/28 10:27:13;;;;;;;7.80;1.40;;;;;;;5.16;83.48;100603.41;104676;1306;22523;-85
2022/12/28 10:29:46;;;;;;;6.20;1.00;;;;;;;5.20;83.43;100596.89;103620;1284;1352040;-85
2022/12/28 10:32:18;;;;;;;6.20;0.90;;;;;;;5.25;83.13;100593.52;104556;1286;22591;-84
2022/12/28 10:34:57;;;;;;;4.50;0.80;;;;;;;5.29;83.04;100592.30;104467;1280;22441;-84
2022/12/28 10:37:31;;;;;;;5.50;1.00;;;;;;;5.32;82.96;100585.10;104585;1309;23216;-85
2022/12/28 10:40:05;;;;;;;4.00;0.70;;;;;;;5.35;82.85;100578.56;104500;1288;22495;-85
2022/12/28 10:42:40;;;;;;;5.50;1.00;;;;;;;5.36;82.57;100576.31;104623;1301;22490;-84
2022/12/28 10:45:19;;;;;;;8.30;1.00;;;;;;;5.38;82.43;100575.69;104429;1309;22469;-84
2022/12/28 10:47:53;;;;;;;5.00;0.90;;;;;;;5.41;82.58;100575.38;104475;1304;22726;-84
2022/12/28 10:50:42;;;;;;;10.40;0.80;;;;;;;5.44;81.87;100577.77;104555;1295;23123;-85
2022/12/28 10:53:24;;;;;;;4.90;0.70;;;;;;;5.47;82.27;100570.79;104522;1302;25422;-84
2022/12/28 10:56:20;;;;;;;3.80;0.70;;;;;;;5.52;81.86;100572.89;104578;1304;22476;-84
2022/12/28 10:58:52;;;;;;;4.80;0.80;;;;;;;5.55;81.84;100568.43;104749;1301;22585;-84
2022/12/28 11:01:28;;;;;;;5.40;0.80;;;;;;;5.57;81.77;100562.85;104518;1301;22573;-84
2022/12/28 11:04:08;;;;;;;3.50;0.80;;;;;;;5.59;81.48;100560.81;104695;1309;22533;-84
2022/12/28 11:06:53;;;;;;;6.40;1.00;;;;;;;5.61;81.36;100554.11;104522;1309;23259;-83
2022/12/28 11:09:26;;;;;;;10.60;1.10;;;;;;;5.62;81.58;100550.98;104704;1291;22562;-84
2022/12/28 11:12:15;;;;;;;6.80;1.20;;;;;;;5.62;81.47;100544.97;104920;1294;22454;-85
2022/12/28 11:14:46;;;;;;;5.20;1.30;;;;;;;5.62;81.44;100536.98;104703;1301;24306;-85
2022/12/28 11:17:20;;;;;;;6.40;1.10;;;;;;;5.61;81.28;100530.85;104428;1284;25443;-82
2022/12/28 11:19:54;;;;;;;12.90;1.00;;;;;;;5.59;81.40;100524.34;104324;1309;22485;-81
2022/12/28 11:22:28;;;;;;;6.50;1.30;;;;;;;5.58;81.33;100518.04;104323;1309;25287;-81
2022/12/28 11:25:01;;;;;;;6.30;1.00;;;;;;;5.57;81.54;100518.52;104344;1309;25373;-81
2022/12/28 11:27:34;;;;;;;8.20;1.30;;;;;;;5.56;81.25;100513.27;104219;1295;22436;-82
2022/12/28 11:30:07;;;;;;;6.20;1.10;;;;;;;5.55;81.23;100507.74;104344;1309;22525;-81
2022/12/28 11:32:44;;;;;;;8.50;1.30;;;;;;;5.55;81.27;100502.05;104125;1305;22544;-81
2022/12/28 11:35:20;;;;;;;9.20;1.40;;;;;;;5.56;81.16;100492.77;104186;1309;22562;-82
2022/12/28 11:37:53;;;;;;;7.40;1.40;;;;;;;5.57;81.33;100485.53;104140;1309;23177;-82
2022/12/28 11:40:52;;;;;;;6.80;1.30;;;;;;;5.61;81.28;100486.05;104164;1295;22719;-81
2022/12/28 11:43:48;;;;;;;7.20;1.30;;;;;;;5.65;81.15;100477.39;104109;1309;22556;-82
2022/12/28 11:46:42;;;;;;;12.40;1.70;;;;;;;5.69;80.93;100473.32;104280;1310;22514;-82
2022/12/28 11:49:28;;;;;;;11.50;1.40;;;;;;;5.72;81.31;100467.21;103908;1300;23017;-81
2022/12/28 11:52:45;;;;;;;8.90;1.30;;;;;;;5.74;81.08;100456.63;104401;1315;22587;-82
2022/12/28 11:55:48;;;;;;;11.70;1.70;;;;;;;5.77;81.05;100451.64;104386;1299;22520;-82
2022/12/28 11:58:51;;;;;;;11.90;1.90;;;;;;;5.80;81.08;100442.20;104091;1315;22634;-82
2022/12/28 12:01:46;;;;;;;8.70;1.90;;;;;;;5.84;81.32;100431.42;103930;1315;22490;-81
2022/12/28 12:04:32;;;;;;;7.00;1.30;;;;;;;5.87;81.18;100426.50;104420;1312;22930;-80
2022/12/28 12:07:26;;;;;;;9.40;1.70;;;;;;;5.90;81.25;100421.91;104206;1305;22503;-81
2022/12/28 12:10:28;;;;;;;8.00;1.70;;;;;;;5.92;81.15;100416.14;103953;1300;26580;-80
2022/12/28 12:13:00;;;;;;;6.50;1.50;;;;;;;5.96;81.06;100420.11;103970;1297;22475;-81
2022/12/28 12:15:42;;;;;;;12.40;1.70;;;;;;;5.99;81.21;100410.92;104102;1307;22585;-81
2022/12/28 12:18:22;;;;;;;9.70;2.10;;;;;;;6.02;80.92;100405.77;104113;1297;22442;-81
2022/12/28 12:20:59;;;;;;;6.30;1.20;;;;;;;6.04;80.78;100400.78;103934;1294;22605;-82
2022/12/28 12:23:47;;;;;;;11.90;1.30;;;;;;;6.09;80.96;100398.28;103808;1307;22556;-81